sensor_id;sensor_type;location;lat;lon;timestamp;temperature;humidity
5675;DHT22;2860;54.284;10.158;2023-03-14T00:01:21;7.60;99.90
5675;DHT22;2860;54.284;10.158;2023-03-14T00:03:47;7.60;99.90
5675;DHT22;2860;54.284;10.158;2023-03-14T00:06:13;7.50;99.90
5675;DHT22;2860;54.284;10.158;2023-03-14T00:08:40;7.40;99.90
5675;DHT22;2860;54.284;10.158;2023-03-14T00:11:13;7.40;99.90
5675;DHT22;2860;54.284;10.158;2023-03-14T00:13:40;7.40;99.90
5675;DHT22;2860;54.284;10.158;2023-03-14T00:16:07;7.40;99.90
5675;DHT22;2860;54.284;10.158;2023-03-14T00:18:33;7.40;99.90
5675;DHT22;2860;54.284;10.158;2023-03-14T00:21:00;7.40;99.90
5675;DHT22;2860;54.284;10.158;2023-03-14T00:23:30;7.40;99.90
5675;DHT22;2860;54.284;10.158;2023-03-14T00:26:04;7.40;99.90
5675;DHT22;2860;54.284;10.158;2023-03-14T00:28:29;7.40;99.90
5675;DHT22;2860;54.284;10.158;2023-03-14T00:30:55;7.40;99.90
5675;DHT22;2860;54.284;10.158;2023-03-14T00:33:21;7.30;99.90
5675;DHT22;2860;54.284;10.158;2023-03-14T00:36:14;7.40;99.90
5675;DHT22;2860;54.284;10.158;2023-03-14T00:38:41;7.50;99.90
5675;DHT22;2860;54.284;10.158;2023-03-14T00:41:09;7.70;99.90
5675;DHT22;2860;54.284;10.158;2023-03-14T00:43:35;7.70;99.90
5675;DHT22;2860;54.284;10.158;2023-03-14T00:46:01;7.70;99.90
5675;DHT22;2860;54.284;10.158;2023-03-14T00:48:27;7.70;99.90
5675;DHT22;2860;54.284;10.158;2023-03-14T00:50:53;7.70;99.90
5675;DHT22;2860;54.284;10.158;2023-03-14T00:53:18;7.80;99.90
5675;DHT22;2860;54.284;10.158;2023-03-14T00:55:44;7.90;99.90
5675;DHT22;2860;54.284;10.158;2023-03-14T00:58:12;7.90;99.90
5675;DHT22;2860;54.284;10.158;2023-03-14T01:00:39;7.80;99.90
5675;DHT22;2860;54.284;10.158;2023-03-14T01:03:05;7.80;99.90
5675;DHT22;2860;54.284;10.158;2023-03-14T01:05:31;7.80;99.90
5675;DHT22;2860;54.284;10.158;2023-03-14T01:07:56;7.70;99.90
5675;DHT22;2860;54.284;10.158;2023-03-14T01:10:22;7.60;99.90
5675;DHT22;2860;54.284;10.158;2023-03-14T01:12:48;7.50;99.90
5675;DHT22;2860;54.284;10.158;2023-03-14T01:15:14;7.50;99.90
5675;DHT22;2860;54.284;10.158;2023-03-14T01:17:39;7.40;99.90
5675;DHT22;2860;54.284;10.158;2023-03-14T01:20:06;7.40;99.90
5675;DHT22;2860;54.284;10.158;2023-03-14T01:22:38;7.40;99.90
5675;DHT22;2860;54.284;10.158;2023-03-14T01:25:09;7.30;99.90
5675;DHT22;2860;54.284;10.158;2023-03-14T01:27:35;7.30;99.90
5675;DHT22;2860;54.284;10.158;2023-03-14T01:30:01;7.30;99.90
5675;DHT22;2860;54.284;10.158;2023-03-14T01:32:27;7.30;99.90
5675;DHT22;2860;54.284;10.158;2023-03-14T01:34:53;7.40;99.90
5675;DHT22;2860;54.284;10.158;2023-03-14T01:37:18;7.40;99.90
5675;DHT22;2860;54.284;10.158;2023-03-14T01:39:45;7.50;99.90
5675;DHT22;2860;54.284;10.158;2023-03-14T01:42:11;7.50;99.90
5675;DHT22;2860;54.284;10.158;2023-03-14T01:44:57;7.60;99.90
5675;DHT22;2860;54.284;10.158;2023-03-14T01:47:23;7.70;99.90
5675;DHT22;2860;54.284;10.158;2023-03-14T01:50:07;7.80;99.90
5675;DHT22;2860;54.284;10.158;2023-03-14T01:52:41;7.90;99.90
5675;DHT22;2860;54.284;10.158;2023-03-14T01:55:15;8.00;99.90
5675;DHT22;2860;54.284;10.158;2023-03-14T01:57:44;8.10;99.90
5675;DHT22;2860;54.284;10.158;2023-03-14T02:00:13;8.20;99.90
5675;DHT22;2860;54.284;10.158;2023-03-14T02:02:41;8.10;99.90
5675;DHT22;2860;54.284;10.158;2023-03-14T02:05:08;8.00;99.90
5675;DHT22;2860;54.284;10.158;2023-03-14T02:07:51;8.00;99.90
5675;DHT22;2860;54.284;10.158;2023-03-14T02:10:19;7.90;99.90
5675;DHT22;2860;54.284;10.158;2023-03-14T02:12:47;8.00;99.90
5675;DHT22;2860;54.284;10.158;2023-03-14T02:15:13;7.90;99.90
5675;DHT22;2860;54.284;10.158;2023-03-14T02:17:40;7.90;99.90
5675;DHT22;2860;54.284;10.158;2023-03-14T02:20:10;7.80;99.90
5675;DHT22;2860;54.284;10.158;2023-03-14T02:22:41;7.80;99.90
5675;DHT22;2860;54.284;10.158;2023-03-14T02:25:17;7.70;99.90
5675;DHT22;2860;54.284;10.158;2023-03-14T02:27:45;7.70;99.90
5675;DHT22;2860;54.284;10.158;2023-03-14T02:30:15;7.70;99.90
5675;DHT22;2860;54.284;10.158;2023-03-14T02:32:44;7.70;99.90
5675;DHT22;2860;54.284;10.158;2023-03-14T02:35:14;7.60;99.90
5675;DHT22;2860;54.284;10.158;2023-03-14T02:37:51;7.60;99.90
5675;DHT22;2860;54.284;10.158;2023-03-14T02:40:18;7.50;99.90
5675;DHT22;2860;54.284;10.158;2023-03-14T02:42:44;7.50;99.90
5675;DHT22;2860;54.284;10.158;2023-03-14T02:47:38;7.40;99.90
5675;DHT22;2860;54.284;10.158;2023-03-14T02:50:10;7.40;99.90
5675;DHT22;2860;54.284;10.158;2023-03-14T02:52:37;7.40;99.90
5675;DHT22;2860;54.284;10.158;2023-03-14T02:55:02;7.40;99.90
5675;DHT22;2860;54.284;10.158;2023-03-14T02:57:28;7.40;99.90
5675;DHT22;2860;54.284;10.158;2023-03-14T02:59:57;7.30;99.90
5675;DHT22;2860;54.284;10.158;2023-03-14T03:02:23;7.30;99.90
5675;DHT22;2860;54.284;10.158;2023-03-14T03:04:49;7.30;99.90
5675;DHT22;2860;54.284;10.158;2023-03-14T03:07:14;7.20;99.90
5675;DHT22;2860;54.284;10.158;2023-03-14T03:09:40;7.20;99.90
5675;DHT22;2860;54.284;10.158;2023-03-14T03:12:05;7.30;99.90
5675;DHT22;2860;54.284;10.158;2023-03-14T03:14:31;7.30;99.90
5675;DHT22;2860;54.284;10.158;2023-03-14T03:16:56;7.30;99.90
5675;DHT22;2860;54.284;10.158;2023-03-14T03:19:22;7.30;99.90
5675;DHT22;2860;54.284;10.158;2023-03-14T03:21:47;7.30;99.90
5675;DHT22;2860;54.284;10.158;2023-03-14T03:24:13;7.30;99.90
5675;DHT22;2860;54.284;10.158;2023-03-14T03:26:39;7.40;99.90
5675;DHT22;2860;54.284;10.158;2023-03-14T03:29:04;7.50;99.90
5675;DHT22;2860;54.284;10.158;2023-03-14T03:31:30;7.60;99.90
5675;DHT22;2860;54.284;10.158;2023-03-14T03:33:56;7.60;99.90
5675;DHT22;2860;54.284;10.158;2023-03-14T03:36:25;7.70;99.90
5675;DHT22;2860;54.284;10.158;2023-03-14T03:38:51;7.70;99.90
5675;DHT22;2860;54.284;10.158;2023-03-14T03:41:17;7.70;99.90
5675;DHT22;2860;54.284;10.158;2023-03-14T03:43:42;7.80;99.90
5675;DHT22;2860;54.284;10.158;2023-03-14T03:46:08;7.90;99.90
5675;DHT22;2860;54.284;10.158;2023-03-14T03:48:34;7.90;99.90
5675;DHT22;2860;54.284;10.158;2023-03-14T03:51:00;8.00;99.90
5675;DHT22;2860;54.284;10.158;2023-03-14T03:53:26;8.00;99.90
5675;DHT22;2860;54.284;10.158;2023-03-14T03:55:51;8.10;99.90
5675;DHT22;2860;54.284;10.158;2023-03-14T03:58:17;8.20;99.90
5675;DHT22;2860;54.284;10.158;2023-03-14T04:00:43;8.20;99.90
5675;DHT22;2860;54.284;10.158;2023-03-14T04:03:08;8.30;99.90
5675;DHT22;2860;54.284;10.158;2023-03-14T04:05:34;8.40;99.90
5675;DHT22;2860;54.284;10.158;2023-03-14T04:08:00;8.50;99.90
5675;DHT22;2860;54.284;10.158;2023-03-14T04:10:26;8.60;99.90
5675;DHT22;2860;54.284;10.158;2023-03-14T04:12:51;8.60;99.90
5675;DHT22;2860;54.284;10.158;2023-03-14T04:15:17;8.60;99.90
5675;DHT22;2860;54.284;10.158;2023-03-14T04:17:43;8.70;99.90
5675;DHT22;2860;54.284;10.158;2023-03-14T04:20:09;8.70;99.90
5675;DHT22;2860;54.284;10.158;2023-03-14T04:22:37;8.70;99.90
5675;DHT22;2860;54.284;10.158;2023-03-14T04:25:03;8.70;99.90
5675;DHT22;2860;54.284;10.158;2023-03-14T04:27:29;8.70;99.90
5675;DHT22;2860;54.284;10.158;2023-03-14T04:29:54;8.70;99.90
5675;DHT22;2860;54.284;10.158;2023-03-14T04:32:20;8.70;99.90
5675;DHT22;2860;54.284;10.158;2023-03-14T04:34:46;8.70;99.90
5675;DHT22;2860;54.284;10.158;2023-03-14T04:37:12;8.60;99.90
5675;DHT22;2860;54.284;10.158;2023-03-14T04:39:37;8.60;99.90
5675;DHT22;2860;54.284;10.158;2023-03-14T04:42:03;8.60;99.90
5675;DHT22;2860;54.284;10.158;2023-03-14T04:44:28;8.50;99.90
5675;DHT22;2860;54.284;10.158;2023-03-14T04:46:54;8.50;99.90
5675;DHT22;2860;54.284;10.158;2023-03-14T04:49:19;8.50;99.90
5675;DHT22;2860;54.284;10.158;2023-03-14T04:51:45;8.50;99.90
5675;DHT22;2860;54.284;10.158;2023-03-14T04:54:11;8.50;99.90
5675;DHT22;2860;54.284;10.158;2023-03-14T04:56:36;8.50;99.90
5675;DHT22;2860;54.284;10.158;2023-03-14T04:59:02;8.50;99.90
5675;DHT22;2860;54.284;10.158;2023-03-14T05:01:28;8.50;99.90
5675;DHT22;2860;54.284;10.158;2023-03-14T05:03:53;8.40;99.90
5675;DHT22;2860;54.284;10.158;2023-03-14T05:06:19;8.40;99.90
5675;DHT22;2860;54.284;10.158;2023-03-14T05:08:45;8.40;99.90
5675;DHT22;2860;54.284;10.158;2023-03-14T05:11:10;8.30;99.90
5675;DHT22;2860;54.284;10.158;2023-03-14T05:13:36;8.30;99.90
5675;DHT22;2860;54.284;10.158;2023-03-14T05:16:06;8.20;99.90
5675;DHT22;2860;54.284;10.158;2023-03-14T05:18:32;8.20;99.90
5675;DHT22;2860;54.284;10.158;2023-03-14T05:20:58;8.20;99.90
5675;DHT22;2860;54.284;10.158;2023-03-14T05:23:24;8.10;99.90
5675;DHT22;2860;54.284;10.158;2023-03-14T05:25:50;8.10;99.90
5675;DHT22;2860;54.284;10.158;2023-03-14T05:28:15;8.00;99.90
5675;DHT22;2860;54.284;10.158;2023-03-14T05:30:41;8.00;99.90
5675;DHT22;2860;54.284;10.158;2023-03-14T05:33:06;7.90;99.90
5675;DHT22;2860;54.284;10.158;2023-03-14T05:35:32;7.90;99.90
5675;DHT22;2860;54.284;10.158;2023-03-14T05:37:57;7.90;99.90
5675;DHT22;2860;54.284;10.158;2023-03-14T05:40:23;7.80;99.90
5675;DHT22;2860;54.284;10.158;2023-03-14T05:42:48;7.80;99.90
5675;DHT22;2860;54.284;10.158;2023-03-14T05:45:14;7.70;99.90
5675;DHT22;2860;54.284;10.158;2023-03-14T05:47:39;7.60;99.90
5675;DHT22;2860;54.284;10.158;2023-03-14T05:50:05;7.60;99.90
5675;DHT22;2860;54.284;10.158;2023-03-14T05:52:30;7.50;99.90
5675;DHT22;2860;54.284;10.158;2023-03-14T05:54:56;7.40;99.90
5675;DHT22;2860;54.284;10.158;2023-03-14T05:57:21;7.30;99.90
5675;DHT22;2860;54.284;10.158;2023-03-14T05:59:47;7.30;99.90
5675;DHT22;2860;54.284;10.158;2023-03-14T06:02:12;7.20;99.90
5675;DHT22;2860;54.284;10.158;2023-03-14T06:04:38;7.10;99.90
5675;DHT22;2860;54.284;10.158;2023-03-14T06:07:03;7.00;99.90
5675;DHT22;2860;54.284;10.158;2023-03-14T06:09:29;7.00;99.90
5675;DHT22;2860;54.284;10.158;2023-03-14T06:11:54;7.00;99.90
5675;DHT22;2860;54.284;10.158;2023-03-14T06:14:20;7.00;99.90
5675;DHT22;2860;54.284;10.158;2023-03-14T06:16:45;7.00;99.90
5675;DHT22;2860;54.284;10.158;2023-03-14T06:19:13;7.10;99.90
5675;DHT22;2860;54.284;10.158;2023-03-14T06:21:38;7.10;99.90
5675;DHT22;2860;54.284;10.158;2023-03-14T06:24:04;7.10;99.90
5675;DHT22;2860;54.284;10.158;2023-03-14T06:26:29;7.20;99.90
5675;DHT22;2860;54.284;10.158;2023-03-14T06:28:55;7.40;99.90
5675;DHT22;2860;54.284;10.158;2023-03-14T06:31:20;7.50;99.90
5675;DHT22;2860;54.284;10.158;2023-03-14T06:33:46;7.70;99.90
5675;DHT22;2860;54.284;10.158;2023-03-14T06:36:11;7.90;99.90
5675;DHT22;2860;54.284;10.158;2023-03-14T06:38:37;8.00;99.90
5675;DHT22;2860;54.284;10.158;2023-03-14T06:41:06;8.10;99.90
5675;DHT22;2860;54.284;10.158;2023-03-14T06:43:32;8.20;99.90
5675;DHT22;2860;54.284;10.158;2023-03-14T06:45:58;8.30;99.90
5675;DHT22;2860;54.284;10.158;2023-03-14T06:48:23;8.30;99.90
5675;DHT22;2860;54.284;10.158;2023-03-14T06:50:49;8.40;99.90
5675;DHT22;2860;54.284;10.158;2023-03-14T06:53:14;8.40;99.90
5675;DHT22;2860;54.284;10.158;2023-03-14T06:55:40;8.40;99.90
5675;DHT22;2860;54.284;10.158;2023-03-14T06:58:05;8.40;99.90
5675;DHT22;2860;54.284;10.158;2023-03-14T07:00:33;8.40;99.90
5675;DHT22;2860;54.284;10.158;2023-03-14T07:02:59;8.40;99.90
5675;DHT22;2860;54.284;10.158;2023-03-14T07:05:24;8.50;99.90
5675;DHT22;2860;54.284;10.158;2023-03-14T07:07:50;8.50;99.90
5675;DHT22;2860;54.284;10.158;2023-03-14T07:10:16;8.50;99.90
5675;DHT22;2860;54.284;10.158;2023-03-14T07:12:41;8.50;99.90
5675;DHT22;2860;54.284;10.158;2023-03-14T07:15:07;8.60;99.90
5675;DHT22;2860;54.284;10.158;2023-03-14T07:17:33;8.60;99.90
5675;DHT22;2860;54.284;10.158;2023-03-14T07:19:59;8.70;99.90
5675;DHT22;2860;54.284;10.158;2023-03-14T07:22:24;8.70;99.90
5675;DHT22;2860;54.284;10.158;2023-03-14T07:24:50;8.80;99.90
5675;DHT22;2860;54.284;10.158;2023-03-14T07:27:15;8.80;99.90
5675;DHT22;2860;54.284;10.158;2023-03-14T07:29:41;8.80;99.90
5675;DHT22;2860;54.284;10.158;2023-03-14T07:32:06;8.80;99.90
5675;DHT22;2860;54.284;10.158;2023-03-14T07:34:33;8.80;99.90
5675;DHT22;2860;54.284;10.158;2023-03-14T07:36:59;8.80;99.90
5675;DHT22;2860;54.284;10.158;2023-03-14T07:39:25;8.90;99.90
5675;DHT22;2860;54.284;10.158;2023-03-14T07:41:50;9.00;99.90
5675;DHT22;2860;54.284;10.158;2023-03-14T07:44:16;9.20;99.90
5675;DHT22;2860;54.284;10.158;2023-03-14T07:46:41;9.30;99.90
5675;DHT22;2860;54.284;10.158;2023-03-14T07:49:07;9.40;99.90
5675;DHT22;2860;54.284;10.158;2023-03-14T07:51:32;9.40;99.90
5675;DHT22;2860;54.284;10.158;2023-03-14T07:53:58;9.40;99.90
5675;DHT22;2860;54.284;10.158;2023-03-14T07:56:23;9.30;99.90
5675;DHT22;2860;54.284;10.158;2023-03-14T07:58:49;9.20;99.90
5675;DHT22;2860;54.284;10.158;2023-03-14T08:01:14;9.20;99.90
5675;DHT22;2860;54.284;10.158;2023-03-14T08:03:40;9.20;99.90
5675;DHT22;2860;54.284;10.158;2023-03-14T08:06:06;9.10;99.90
5675;DHT22;2860;54.284;10.158;2023-03-14T08:08:31;9.10;99.90
5675;DHT22;2860;54.284;10.158;2023-03-14T08:11:03;9.00;99.90
5675;DHT22;2860;54.284;10.158;2023-03-14T08:13:29;9.00;99.90
5675;DHT22;2860;54.284;10.158;2023-03-14T08:15:54;9.10;99.90
5675;DHT22;2860;54.284;10.158;2023-03-14T08:18:20;9.20;99.90
5675;DHT22;2860;54.284;10.158;2023-03-14T08:20:45;9.20;99.90
5675;DHT22;2860;54.284;10.158;2023-03-14T08:23:11;9.30;99.90
5675;DHT22;2860;54.284;10.158;2023-03-14T08:25:37;9.30;99.90
5675;DHT22;2860;54.284;10.158;2023-03-14T08:28:03;9.30;99.90
5675;DHT22;2860;54.284;10.158;2023-03-14T08:30:29;9.30;99.90
5675;DHT22;2860;54.284;10.158;2023-03-14T08:32:57;9.20;99.90
5675;DHT22;2860;54.284;10.158;2023-03-14T08:35:23;9.20;99.90
5675;DHT22;2860;54.284;10.158;2023-03-14T08:37:49;9.20;99.90
5675;DHT22;2860;54.284;10.158;2023-03-14T08:40:14;9.20;99.90
5675;DHT22;2860;54.284;10.158;2023-03-14T08:42:42;9.10;99.90
5675;DHT22;2860;54.284;10.158;2023-03-14T08:45:08;9.10;99.90
5675;DHT22;2860;54.284;10.158;2023-03-14T08:47:35;9.00;99.90
5675;DHT22;2860;54.284;10.158;2023-03-14T08:50:01;9.00;99.90
5675;DHT22;2860;54.284;10.158;2023-03-14T08:52:27;8.90;99.90
5675;DHT22;2860;54.284;10.158;2023-03-14T08:54:52;8.80;99.90
5675;DHT22;2860;54.284;10.158;2023-03-14T08:57:18;8.70;99.90
5675;DHT22;2860;54.284;10.158;2023-03-14T08:59:43;8.60;99.90
5675;DHT22;2860;54.284;10.158;2023-03-14T09:02:11;8.60;99.90
5675;DHT22;2860;54.284;10.158;2023-03-14T09:04:37;8.50;99.90
5675;DHT22;2860;54.284;10.158;2023-03-14T09:07:02;8.20;99.90
5675;DHT22;2860;54.284;10.158;2023-03-14T09:09:28;7.80;99.90
5675;DHT22;2860;54.284;10.158;2023-03-14T09:11:56;7.40;99.90
5675;DHT22;2860;54.284;10.158;2023-03-14T09:14:21;7.20;99.90
5675;DHT22;2860;54.284;10.158;2023-03-14T09:16:47;7.00;99.90
5675;DHT22;2860;54.284;10.158;2023-03-14T09:19:12;7.00;99.90
5675;DHT22;2860;54.284;10.158;2023-03-14T09:21:38;6.70;99.90
5675;DHT22;2860;54.284;10.158;2023-03-14T09:24:04;6.40;99.90
5675;DHT22;2860;54.284;10.158;2023-03-14T09:26:30;6.10;99.90
5675;DHT22;2860;54.284;10.158;2023-03-14T09:28:56;5.80;99.90
5675;DHT22;2860;54.284;10.158;2023-03-14T09:31:21;5.70;99.90
5675;DHT22;2860;54.284;10.158;2023-03-14T09:33:46;5.50;99.90
5675;DHT22;2860;54.284;10.158;2023-03-14T09:36:12;5.40;99.90
5675;DHT22;2860;54.284;10.158;2023-03-14T09:38:38;5.40;99.90
5675;DHT22;2860;54.284;10.158;2023-03-14T09:41:16;5.20;99.90
5675;DHT22;2860;54.284;10.158;2023-03-14T09:43:43;5.00;99.90
5675;DHT22;2860;54.284;10.158;2023-03-14T09:46:10;4.80;99.90
5675;DHT22;2860;54.284;10.158;2023-03-14T09:48:37;4.70;99.90
5675;DHT22;2860;54.284;10.158;2023-03-14T09:51:10;4.50;99.90
5675;DHT22;2860;54.284;10.158;2023-03-14T09:53:41;4.50;99.90
5675;DHT22;2860;54.284;10.158;2023-03-14T09:56:17;4.40;99.90
5675;DHT22;2860;54.284;10.158;2023-03-14T09:58:50;4.40;99.90
5675;DHT22;2860;54.284;10.158;2023-03-14T10:01:20;4.30;99.90
5675;DHT22;2860;54.284;10.158;2023-03-14T10:03:47;4.20;99.90
5675;DHT22;2860;54.284;10.158;2023-03-14T10:06:14;4.10;99.90
5675;DHT22;2860;54.284;10.158;2023-03-14T10:08:44;4.10;99.90
5675;DHT22;2860;54.284;10.158;2023-03-14T10:11:15;4.10;99.90
5675;DHT22;2860;54.284;10.158;2023-03-14T10:14:08;4.10;99.90
5675;DHT22;2860;54.284;10.158;2023-03-14T10:16:41;4.20;99.90
5675;DHT22;2860;54.284;10.158;2023-03-14T10:19:11;4.20;99.90
5675;DHT22;2860;54.284;10.158;2023-03-14T10:21:39;4.20;99.90
5675;DHT22;2860;54.284;10.158;2023-03-14T10:26:40;4.30;99.90
5675;DHT22;2860;54.284;10.158;2023-03-14T10:29:12;4.30;99.90
5675;DHT22;2860;54.284;10.158;2023-03-14T10:32:10;4.40;99.90
5675;DHT22;2860;54.284;10.158;2023-03-14T10:34:43;4.50;99.90
5675;DHT22;2860;54.284;10.158;2023-03-14T10:37:21;4.50;99.90
5675;DHT22;2860;54.284;10.158;2023-03-14T10:39:49;4.40;99.90
5675;DHT22;2860;54.284;10.158;2023-03-14T10:42:29;4.50;99.90
5675;DHT22;2860;54.284;10.158;2023-03-14T10:45:01;4.50;99.90
5675;DHT22;2860;54.284;10.158;2023-03-14T10:47:28;4.50;99.90
5675;DHT22;2860;54.284;10.158;2023-03-14T10:49:55;4.60;99.90
5675;DHT22;2860;54.284;10.158;2023-03-14T10:52:26;4.80;99.90
5675;DHT22;2860;54.284;10.158;2023-03-14T10:54:58;4.90;99.90
5675;DHT22;2860;54.284;10.158;2023-03-14T10:57:24;5.10;99.90
5675;DHT22;2860;54.284;10.158;2023-03-14T10:59:51;5.20;99.90
5675;DHT22;2860;54.284;10.158;2023-03-14T11:02:39;5.20;99.90
5675;DHT22;2860;54.284;10.158;2023-03-14T11:08:09;5.40;99.90
5675;DHT22;2860;54.284;10.158;2023-03-14T11:10:38;5.50;99.90
5675;DHT22;2860;54.284;10.158;2023-03-14T11:13:39;5.60;99.90
5675;DHT22;2860;54.284;10.158;2023-03-14T11:22:04;5.70;99.90
5675;DHT22;2860;54.284;10.158;2023-03-14T11:30:05;5.70;99.90
5675;DHT22;2860;54.284;10.158;2023-03-14T11:32:54;5.70;99.90
5675;DHT22;2860;54.284;10.158;2023-03-14T11:35:32;5.80;99.90
5675;DHT22;2860;54.284;10.158;2023-03-14T11:38:18;5.90;99.90
5675;DHT22;2860;54.284;10.158;2023-03-14T11:40:46;5.90;99.90
5675;DHT22;2860;54.284;10.158;2023-03-14T11:43:20;5.90;99.90
5675;DHT22;2860;54.284;10.158;2023-03-14T11:45:49;6.00;99.90
5675;DHT22;2860;54.284;10.158;2023-03-14T11:50:49;6.00;99.90
5675;DHT22;2860;54.284;10.158;2023-03-14T11:53:25;6.10;99.90
5675;DHT22;2860;54.284;10.158;2023-03-14T11:55:54;6.20;99.90
5675;DHT22;2860;54.284;10.158;2023-03-14T11:58:27;6.30;99.90
5675;DHT22;2860;54.284;10.158;2023-03-14T12:00:56;6.30;99.90
5675;DHT22;2860;54.284;10.158;2023-03-14T12:03:39;6.30;99.90
5675;DHT22;2860;54.284;10.158;2023-03-14T12:06:19;6.20;99.90
5675;DHT22;2860;54.284;10.158;2023-03-14T12:08:50;6.20;99.90
5675;DHT22;2860;54.284;10.158;2023-03-14T12:14:00;6.20;99.90
5675;DHT22;2860;54.284;10.158;2023-03-14T12:16:31;6.20;99.90
5675;DHT22;2860;54.284;10.158;2023-03-14T12:19:14;6.30;99.90
5675;DHT22;2860;54.284;10.158;2023-03-14T12:21:51;6.50;99.90
5675;DHT22;2860;54.284;10.158;2023-03-14T12:24:21;6.40;99.90
5675;DHT22;2860;54.284;10.158;2023-03-14T12:26:57;6.40;99.90
5675;DHT22;2860;54.284;10.158;2023-03-14T12:29:23;6.30;99.90
5675;DHT22;2860;54.284;10.158;2023-03-14T12:32:07;6.40;99.90
5675;DHT22;2860;54.284;10.158;2023-03-14T12:34:39;6.30;99.90
5675;DHT22;2860;54.284;10.158;2023-03-14T12:37:14;6.20;99.90
5675;DHT22;2860;54.284;10.158;2023-03-14T12:39:47;6.20;99.90
5675;DHT22;2860;54.284;10.158;2023-03-14T12:42:22;6.30;99.90
5675;DHT22;2860;54.284;10.158;2023-03-14T12:45:23;6.40;99.90
5675;DHT22;2860;54.284;10.158;2023-03-14T12:47:55;6.40;99.90
5675;DHT22;2860;54.284;10.158;2023-03-14T12:50:29;6.30;99.90
5675;DHT22;2860;54.284;10.158;2023-03-14T12:53:20;6.20;99.90
5675;DHT22;2860;54.284;10.158;2023-03-14T12:58:35;6.40;99.90
5675;DHT22;2860;54.284;10.158;2023-03-14T13:01:04;6.40;99.90
5675;DHT22;2860;54.284;10.158;2023-03-14T13:04:00;6.40;99.90
5675;DHT22;2860;54.284;10.158;2023-03-14T13:06:49;6.50;99.90
5675;DHT22;2860;54.284;10.158;2023-03-14T13:12:14;6.50;99.90
5675;DHT22;2860;54.284;10.158;2023-03-14T13:14:44;6.50;99.90
5675;DHT22;2860;54.284;10.158;2023-03-14T13:17:12;6.50;99.90
5675;DHT22;2860;54.284;10.158;2023-03-14T13:19:38;6.50;99.90
5675;DHT22;2860;54.284;10.158;2023-03-14T13:22:27;6.50;99.90
5675;DHT22;2860;54.284;10.158;2023-03-14T13:25:09;6.40;99.90
5675;DHT22;2860;54.284;10.158;2023-03-14T13:27:35;6.40;99.90
5675;DHT22;2860;54.284;10.158;2023-03-14T13:30:25;6.40;99.90
5675;DHT22;2860;54.284;10.158;2023-03-14T13:32:52;6.50;99.90
5675;DHT22;2860;54.284;10.158;2023-03-14T13:35:39;6.50;99.90
5675;DHT22;2860;54.284;10.158;2023-03-14T13:38:05;6.60;99.90
5675;DHT22;2860;54.284;10.158;2023-03-14T13:40:34;6.60;99.90
5675;DHT22;2860;54.284;10.158;2023-03-14T13:43:21;6.50;99.90
5675;DHT22;2860;54.284;10.158;2023-03-14T13:45:52;6.40;99.90
5675;DHT22;2860;54.284;10.158;2023-03-14T13:48:18;6.30;99.90
5675;DHT22;2860;54.284;10.158;2023-03-14T13:50:46;6.30;99.90
5675;DHT22;2860;54.284;10.158;2023-03-14T13:53:14;6.40;99.90
5675;DHT22;2860;54.284;10.158;2023-03-14T13:55:39;6.40;99.90
5675;DHT22;2860;54.284;10.158;2023-03-14T13:58:10;6.50;99.90
5675;DHT22;2860;54.284;10.158;2023-03-14T14:00:36;6.40;99.90
5675;DHT22;2860;54.284;10.158;2023-03-14T14:03:02;6.40;99.90
5675;DHT22;2860;54.284;10.158;2023-03-14T14:05:28;6.40;99.90
5675;DHT22;2860;54.284;10.158;2023-03-14T14:07:56;6.40;99.90
5675;DHT22;2860;54.284;10.158;2023-03-14T14:10:22;6.40;99.90
5675;DHT22;2860;54.284;10.158;2023-03-14T14:13:02;6.40;99.90
5675;DHT22;2860;54.284;10.158;2023-03-14T14:15:31;6.40;99.90
5675;DHT22;2860;54.284;10.158;2023-03-14T14:18:04;6.40;99.90
5675;DHT22;2860;54.284;10.158;2023-03-14T14:20:39;6.30;99.90
5675;DHT22;2860;54.284;10.158;2023-03-14T14:23:26;6.30;99.90
5675;DHT22;2860;54.284;10.158;2023-03-14T14:25:55;6.40;99.90
5675;DHT22;2860;54.284;10.158;2023-03-14T14:28:32;6.50;99.90
5675;DHT22;2860;54.284;10.158;2023-03-14T14:31:02;6.40;99.90
5675;DHT22;2860;54.284;10.158;2023-03-14T14:33:28;6.30;99.90
5675;DHT22;2860;54.284;10.158;2023-03-14T14:35:57;6.30;99.90
5675;DHT22;2860;54.284;10.158;2023-03-14T14:38:24;6.10;99.90
5675;DHT22;2860;54.284;10.158;2023-03-14T14:40:53;6.00;99.90
5675;DHT22;2860;54.284;10.158;2023-03-14T14:43:24;5.90;99.90
5675;DHT22;2860;54.284;10.158;2023-03-14T14:45:53;5.80;99.90
5675;DHT22;2860;54.284;10.158;2023-03-14T14:48:25;5.70;99.90
5675;DHT22;2860;54.284;10.158;2023-03-14T14:50:58;5.60;99.90
5675;DHT22;2860;54.284;10.158;2023-03-14T14:53:38;5.60;99.90
5675;DHT22;2860;54.284;10.158;2023-03-14T14:56:17;5.50;99.90
5675;DHT22;2860;54.284;10.158;2023-03-14T14:58:46;5.50;99.90
5675;DHT22;2860;54.284;10.158;2023-03-14T15:03:47;5.40;99.90
5675;DHT22;2860;54.284;10.158;2023-03-14T15:06:14;5.50;99.90
5675;DHT22;2860;54.284;10.158;2023-03-14T15:08:42;5.50;99.90
5675;DHT22;2860;54.284;10.158;2023-03-14T15:11:16;5.50;99.90
5675;DHT22;2860;54.284;10.158;2023-03-14T15:13:42;5.50;99.90
5675;DHT22;2860;54.284;10.158;2023-03-14T15:16:10;5.40;99.90
5675;DHT22;2860;54.284;10.158;2023-03-14T15:18:36;5.40;99.90
5675;DHT22;2860;54.284;10.158;2023-03-14T15:21:02;5.40;99.90
5675;DHT22;2860;54.284;10.158;2023-03-14T15:23:28;5.50;99.90
5675;DHT22;2860;54.284;10.158;2023-03-14T15:25:53;5.50;99.90
5675;DHT22;2860;54.284;10.158;2023-03-14T15:28:21;5.60;99.90
5675;DHT22;2860;54.284;10.158;2023-03-14T15:30:49;5.70;99.90
5675;DHT22;2860;54.284;10.158;2023-03-14T15:33:15;5.80;99.90
5675;DHT22;2860;54.284;10.158;2023-03-14T15:35:41;5.80;99.90
5675;DHT22;2860;54.284;10.158;2023-03-14T15:38:15;5.80;99.90
5675;DHT22;2860;54.284;10.158;2023-03-14T15:40:42;5.70;99.90
5675;DHT22;2860;54.284;10.158;2023-03-14T15:43:08;5.70;99.90
5675;DHT22;2860;54.284;10.158;2023-03-14T15:45:34;5.60;99.90
5675;DHT22;2860;54.284;10.158;2023-03-14T15:48:00;5.60;99.90
5675;DHT22;2860;54.284;10.158;2023-03-14T15:50:25;5.50;99.90
5675;DHT22;2860;54.284;10.158;2023-03-14T15:52:51;5.40;99.90
5675;DHT22;2860;54.284;10.158;2023-03-14T15:55:17;5.30;99.90
5675;DHT22;2860;54.284;10.158;2023-03-14T15:57:43;5.40;99.90
5675;DHT22;2860;54.284;10.158;2023-03-14T16:00:16;5.40;99.90
5675;DHT22;2860;54.284;10.158;2023-03-14T16:02:46;5.40;99.90
5675;DHT22;2860;54.284;10.158;2023-03-14T16:05:12;5.30;99.90
5675;DHT22;2860;54.284;10.158;2023-03-14T16:07:39;5.20;99.90
5675;DHT22;2860;54.284;10.158;2023-03-14T16:10:06;5.10;99.90
5675;DHT22;2860;54.284;10.158;2023-03-14T16:12:32;4.90;99.90
5675;DHT22;2860;54.284;10.158;2023-03-14T16:14:59;4.90;99.90
5675;DHT22;2860;54.284;10.158;2023-03-14T16:17:25;4.90;99.90
5675;DHT22;2860;54.284;10.158;2023-03-14T16:19:50;4.90;99.90
5675;DHT22;2860;54.284;10.158;2023-03-14T16:22:16;4.80;99.90
5675;DHT22;2860;54.284;10.158;2023-03-14T16:24:41;4.80;99.90
5675;DHT22;2860;54.284;10.158;2023-03-14T16:27:07;4.70;99.90
5675;DHT22;2860;54.284;10.158;2023-03-14T16:29:33;4.60;99.90
5675;DHT22;2860;54.284;10.158;2023-03-14T16:31:58;4.50;99.90
5675;DHT22;2860;54.284;10.158;2023-03-14T16:34:24;4.50;99.90
5675;DHT22;2860;54.284;10.158;2023-03-14T16:36:49;4.40;99.90
5675;DHT22;2860;54.284;10.158;2023-03-14T16:39:18;4.40;99.90
5675;DHT22;2860;54.284;10.158;2023-03-14T16:41:44;4.30;99.90
5675;DHT22;2860;54.284;10.158;2023-03-14T16:44:10;4.30;99.90